sensor_id;sensor_type;location;lat;lon;timestamp;pressure;altitude;pressure_sealevel;temperature;humidity
43553;BME280;29153;42.696;23.218;2022-09-02T00:00:57;94179.30;;;17.25;100.00
43553;BME280;29153;42.696;23.218;2022-09-02T00:03:27;94178.64;;;17.28;100.00
43553;BME280;29153;42.696;23.218;2022-09-02T00:05:55;94186.13;;;17.29;100.00
43553;BME280;29153;42.696;23.218;2022-09-02T00:08:22;94186.23;;;17.26;100.00
43553;BME280;29153;42.696;23.218;2022-09-02T00:10:50;94191.16;;;17.30;100.00
43553;BME280;29153;42.696;23.218;2022-09-02T00:13:18;94188.07;;;17.35;100.00
43553;BME280;29153;42.696;23.218;2022-09-02T00:15:47;94194.61;;;17.46;100.00
43553;BME280;29153;42.696;23.218;2022-09-02T00:18:16;94195.03;;;17.42;100.00
43553;BME280;29153;42.696;23.218;2022-09-02T00:20:45;94199.34;;;17.49;100.00
43553;BME280;29153;42.696;23.218;2022-09-02T00:23:14;94193.14;;;17.42;100.00
43553;BME280;29153;42.696;23.218;2022-09-02T00:25:43;94194.61;;;17.46;100.00
43553;BME280;29153;42.696;23.218;2022-09-02T00:28:13;94194.56;;;17.54;100.00
43553;BME280;29153;42.696;23.218;2022-09-02T00:30:41;94203.86;;;17.57;100.00
43553;BME280;29153;42.696;23.218;2022-09-02T00:33:13;94200.84;;;17.67;100.00
43553;BME280;29153;42.696;23.218;2022-09-02T00:35:39;94200.55;;;17.74;100.00
43553;BME280;29153;42.696;23.218;2022-09-02T00:38:07;94196.00;;;17.81;100.00
43553;BME280;29153;42.696;23.218;2022-09-02T00:40:36;94189.53;;;17.82;100.00
43553;BME280;29153;42.696;23.218;2022-09-02T00:43:07;94196.91;;;17.85;100.00
43553;BME280;29153;42.696;23.218;2022-09-02T00:45:35;94200.94;;;17.85;100.00
43553;BME280;29153;42.696;23.218;2022-09-02T00:48:04;94201.11;;;17.95;100.00
43553;BME280;29153;42.696;23.218;2022-09-02T00:50:34;94200.36;;;18.00;100.00
43553;BME280;29153;42.696;23.218;2022-09-02T00:53:05;94203.67;;;17.97;100.00
43553;BME280;29153;42.696;23.218;2022-09-02T00:55:42;94206.52;;;18.07;100.00
43553;BME280;29153;42.696;23.218;2022-09-02T00:58:29;94204.61;;;18.28;100.00
43553;BME280;29153;42.696;23.218;2022-09-02T01:00:55;94209.58;;;18.38;100.00
43553;BME280;29153;42.696;23.218;2022-09-02T01:03:27;94211.72;;;18.45;100.00
43553;BME280;29153;42.696;23.218;2022-09-02T01:05:55;94213.09;;;18.51;100.00
43553;BME280;29153;42.696;23.218;2022-09-02T01:08:25;94212.02;;;18.58;99.19
43553;BME280;29153;42.696;23.218;2022-09-02T01:10:54;94216.74;;;18.61;98.32
43553;BME280;29153;42.696;23.218;2022-09-02T01:13:25;94219.95;;;18.54;98.54
43553;BME280;29153;42.696;23.218;2022-09-02T01:15:57;94225.98;;;18.57;97.46
43553;BME280;29153;42.696;23.218;2022-09-02T01:18:26;94222.42;;;18.59;97.57
43553;BME280;29153;42.696;23.218;2022-09-02T01:20:59;94215.28;;;18.63;98.04
43553;BME280;29153;42.696;23.218;2022-09-02T01:23:28;94214.06;;;18.67;98.89
43553;BME280;29153;42.696;23.218;2022-09-02T01:25:56;94219.22;;;18.72;98.16
43553;BME280;29153;42.696;23.218;2022-09-02T01:28:24;94220.77;;;18.67;97.89
43553;BME280;29153;42.696;23.218;2022-09-02T01:30:53;94224.56;;;18.66;96.84
43553;BME280;29153;42.696;23.218;2022-09-02T01:33:22;94216.30;;;18.71;97.37
43553;BME280;29153;42.696;23.218;2022-09-02T01:35:50;94219.22;;;18.72;97.05
43553;BME280;29153;42.696;23.218;2022-09-02T01:38:19;94222.90;;;18.68;97.71
43553;BME280;29153;42.696;23.218;2022-09-02T01:40:48;94228.58;;;18.66;98.02
43553;BME280;29153;42.696;23.218;2022-09-02T01:43:23;94234.94;;;18.61;100.00
43553;BME280;29153;42.696;23.218;2022-09-02T01:45:54;94218.41;;;18.59;100.00
43553;BME280;29153;42.696;23.218;2022-09-02T01:48:22;94218.22;;;18.44;100.00
43553;BME280;29153;42.696;23.218;2022-09-02T01:50:53;94208.33;;;18.36;100.00
43553;BME280;29153;42.696;23.218;2022-09-02T01:53:20;94200.08;;;18.35;100.00
43553;BME280;29153;42.696;23.218;2022-09-02T01:55:48;94191.28;;;18.19;100.00
43553;BME280;29153;42.696;23.218;2022-09-02T01:58:16;94184.14;;;18.24;100.00
43553;BME280;29153;42.696;23.218;2022-09-02T02:00:45;94181.66;;;18.12;100.00
43553;BME280;29153;42.696;23.218;2022-09-02T02:03:13;94180.69;;;17.96;100.00
43553;BME280;29153;42.696;23.218;2022-09-02T02:05:41;94162.67;;;17.91;100.00
43553;BME280;29153;42.696;23.218;2022-09-02T02:08:10;94166.20;;;17.83;100.00
43553;BME280;29153;42.696;23.218;2022-09-02T02:10:41;94166.51;;;17.75;100.00
43553;BME280;29153;42.696;23.218;2022-09-02T02:13:09;94167.55;;;17.62;100.00
43553;BME280;29153;42.696;23.218;2022-09-02T02:15:36;94166.20;;;17.62;100.00
43553;BME280;29153;42.696;23.218;2022-09-02T02:18:04;94154.59;;;17.64;100.00
43553;BME280;29153;42.696;23.218;2022-09-02T02:20:32;94151.39;;;17.56;100.00
43553;BME280;29153;42.696;23.218;2022-09-02T02:22:59;94157.34;;;17.41;100.00
43553;BME280;29153;42.696;23.218;2022-09-02T02:25:27;94152.16;;;17.36;100.00
43553;BME280;29153;42.696;23.218;2022-09-02T02:27:55;94157.78;;;17.43;100.00
43553;BME280;29153;42.696;23.218;2022-09-02T02:30:23;94161.55;;;17.42;100.00
43553;BME280;29153;42.696;23.218;2022-09-02T02:32:50;94158.88;;;17.42;100.00
43553;BME280;29153;42.696;23.218;2022-09-02T02:35:19;94159.09;;;17.37;100.00
43553;BME280;29153;42.696;23.218;2022-09-02T02:37:47;94164.45;;;17.37;100.00
43553;BME280;29153;42.696;23.218;2022-09-02T02:40:19;94161.55;;;17.42;100.00
43553;BME280;29153;42.696;23.218;2022-09-02T02:42:46;94155.58;;;17.45;100.00
43553;BME280;29153;42.696;23.218;2022-09-02T02:45:13;94152.89;;;17.45;100.00
43553;BME280;29153;42.696;23.218;2022-09-02T02:47:42;94154.13;;;17.47;100.00
43553;BME280;29153;42.696;23.218;2022-09-02T02:50:14;94152.42;;;17.43;100.00
43553;BME280;29153;42.696;23.218;2022-09-02T02:52:42;94154.23;;;17.45;100.00
43553;BME280;29153;42.696;23.218;2022-09-02T02:55:12;94160.22;;;17.42;100.00
43553;BME280;29153;42.696;23.218;2022-09-02T02:57:41;94151.27;;;17.38;100.00
43553;BME280;29153;42.696;23.218;2022-09-02T03:00:12;94160.43;;;17.37;100.00
43553;BME280;29153;42.696;23.218;2022-09-02T03:02:40;94163.79;;;17.40;100.00
43553;BME280;29153;42.696;23.218;2022-09-02T03:05:09;94169.87;;;17.34;100.00
43553;BME280;29153;42.696;23.218;2022-09-02T03:07:37;94155.26;;;17.32;100.00
43553;BME280;29153;42.696;23.218;2022-09-02T03:10:06;94164.87;;;17.33;100.00
43553;BME280;29153;42.696;23.218;2022-09-02T03:12:35;94164.66;;;17.38;100.00
43553;BME280;29153;42.696;23.218;2022-09-02T03:15:05;94162.32;;;17.36;100.00
43553;BME280;29153;42.696;23.218;2022-09-02T03:17:33;94161.84;;;17.34;100.00
43553;BME280;29153;42.696;23.218;2022-09-02T03:20:01;94163.11;;;17.37;100.00
43553;BME280;29153;42.696;23.218;2022-09-02T03:22:28;94164.89;;;17.39;100.00
43553;BME280;29153;42.696;23.218;2022-09-02T03:24:56;94168.73;;;17.44;100.00
43553;BME280;29153;42.696;23.218;2022-09-02T03:27:24;94161.25;;;17.43;100.00
43553;BME280;29153;42.696;23.218;2022-09-02T03:29:51;94107.64;;;17.02;100.00
43553;BME280;29153;42.696;23.218;2022-09-02T03:32:19;94165.99;;;17.38;100.00
43553;BME280;29153;42.696;23.218;2022-09-02T03:34:46;94171.27;;;17.40;100.00
43553;BME280;29153;42.696;23.218;2022-09-02T03:37:14;94167.63;;;17.45;100.00
43553;BME280;29153;42.696;23.218;2022-09-02T03:39:42;94168.67;;;17.52;100.00
43553;BME280;29153;42.696;23.218;2022-09-02T03:42:09;94166.73;;;17.47;100.00
43553;BME280;29153;42.696;23.218;2022-09-02T03:44:38;94174.50;;;17.40;100.00
43553;BME280;29153;42.696;23.218;2022-09-02T03:47:07;94171.14;;;17.37;100.00
43553;BME280;29153;42.696;23.218;2022-09-02T03:49:35;94176.26;;;17.36;100.00
43553;BME280;29153;42.696;23.218;2022-09-02T03:52:03;94179.25;;;17.34;100.00
43553;BME280;29153;42.696;23.218;2022-09-02T03:54:30;94182.27;;;17.33;100.00
43553;BME280;29153;42.696;23.218;2022-09-02T03:56:58;94187.47;;;17.44;100.00
43553;BME280;29153;42.696;23.218;2022-09-02T03:59:25;94196.10;;;17.35;100.00
43553;BME280;29153;42.696;23.218;2022-09-02T04:01:53;94198.88;;;17.32;100.00
43553;BME280;29153;42.696;23.218;2022-09-02T04:04:21;94196.52;;;17.30;100.00
43553;BME280;29153;42.696;23.218;2022-09-02T04:06:48;94203.06;;;17.42;100.00
43553;BME280;29153;42.696;23.218;2022-09-02T04:09:16;94207.92;;;17.48;100.00
43553;BME280;29153;42.696;23.218;2022-09-02T04:11:45;94208.66;;;17.43;100.00
43553;BME280;29153;42.696;23.218;2022-09-02T04:14:12;94212.95;;;17.35;100.00
43553;BME280;29153;42.696;23.218;2022-09-02T04:16:40;94220.67;;;17.37;100.00
43553;BME280;29153;42.696;23.218;2022-09-02T04:19:07;94221.36;;;17.40;100.00
43553;BME280;29153;42.696;23.218;2022-09-02T04:21:36;94221.49;;;17.43;100.00
43553;BME280;29153;42.696;23.218;2022-09-02T04:24:05;94227.16;;;17.42;100.00
43553;BME280;29153;42.696;23.218;2022-09-02T04:26:34;94236.03;;;17.34;100.00
43553;BME280;29153;42.696;23.218;2022-09-02T04:29:03;94236.92;;;17.32;100.00
43553;BME280;29153;42.696;23.218;2022-09-02T04:31:33;94239.49;;;17.34;100.00
43553;BME280;29153;42.696;23.218;2022-09-02T04:34:02;94229.95;;;17.39;100.00
43553;BME280;29153;42.696;23.218;2022-09-02T04:36:30;94237.73;;;17.38;100.00
43553;BME280;29153;42.696;23.218;2022-09-02T04:38:58;94231.15;;;17.36;100.00
43553;BME280;29153;42.696;23.218;2022-09-02T04:41:28;94237.50;;;17.37;100.00
43553;BME280;29153;42.696;23.218;2022-09-02T04:43:57;94247.04;;;17.41;100.00
43553;BME280;29153;42.696;23.218;2022-09-02T04:46:25;94238.73;;;17.48;100.00
43553;BME280;29153;42.696;23.218;2022-09-02T04:48:54;94245.42;;;17.48;100.00
43553;BME280;29153;42.696;23.218;2022-09-02T04:51:24;94246.58;;;17.53;100.00
43553;BME280;29153;42.696;23.218;2022-09-02T04:53:52;94248.23;;;17.52;100.00
43553;BME280;29153;42.696;23.218;2022-09-02T04:56:23;94251.88;;;17.47;100.00
43553;BME280;29153;42.696;23.218;2022-09-02T04:58:52;94258.12;;;17.45;100.00
43553;BME280;29153;42.696;23.218;2022-09-02T05:01:22;94260.46;;;17.47;100.00
43553;BME280;29153;42.696;23.218;2022-09-02T05:03:50;94261.11;;;17.44;100.00
43553;BME280;29153;42.696;23.218;2022-09-02T05:06:22;94260.88;;;17.43;100.00
43553;BME280;29153;42.696;23.218;2022-09-02T05:08:52;94259.59;;;17.49;100.00
43553;BME280;29153;42.696;23.218;2022-09-02T05:11:22;94260.82;;;17.60;100.00
43553;BME280;29153;42.696;23.218;2022-09-02T05:13:52;94257.36;;;17.59;100.00
43553;BME280;29153;42.696;23.218;2022-09-02T05:16:21;94260.75;;;17.62;100.00
43553;BME280;29153;42.696;23.218;2022-09-02T05:18:51;94260.51;;;17.61;100.00
43553;BME280;29153;42.696;23.218;2022-09-02T05:21:20;94262.30;;;17.63;100.00
43553;BME280;29153;42.696;23.218;2022-09-02T05:23:51;94262.48;;;17.73;100.00
43553;BME280;29153;42.696;23.218;2022-09-02T05:26:19;94264.85;;;17.74;100.00
43553;BME280;29153;42.696;23.218;2022-09-02T05:28:46;94262.41;;;17.76;100.00
43553;BME280;29153;42.696;23.218;2022-09-02T05:31:15;94263.64;;;17.78;100.00
43553;BME280;29153;42.696;23.218;2022-09-02T05:33:49;94257.81;;;17.76;100.00
43553;BME280;29153;42.696;23.218;2022-09-02T05:36:24;94258.73;;;17.80;100.00
43553;BME280;29153;42.696;23.218;2022-09-02T05:38:52;94260.86;;;17.95;100.00
43553;BME280;29153;42.696;23.218;2022-09-02T05:41:23;94249.95;;;18.00;100.00
43553;BME280;29153;42.696;23.218;2022-09-02T05:43:55;94255.45;;;18.10;100.00
43553;BME280;29153;42.696;23.218;2022-09-02T05:46:25;94252.71;;;18.18;100.00
43553;BME280;29153;42.696;23.218;2022-09-02T05:48:54;94251.97;;;18.24;100.00
43553;BME280;29153;42.696;23.218;2022-09-02T05:51:41;94252.48;;;18.38;100.00
43553;BME280;29153;42.696;23.218;2022-09-02T05:54:18;94252.30;;;18.49;100.00
43553;BME280;29153;42.696;23.218;2022-09-02T05:56:48;94243.22;;;18.56;100.00
43553;BME280;29153;42.696;23.218;2022-09-02T05:59:17;94242.35;;;18.64;100.00
43553;BME280;29153;42.696;23.218;2022-09-02T06:01:47;94247.20;;;18.77;100.00
43553;BME280;29153;42.696;23.218;2022-09-02T06:04:15;94236.23;;;18.76;100.00
43553;BME280;29153;42.696;23.218;2022-09-02T06:06:44;94240.72;;;18.84;100.00
43553;BME280;29153;42.696;23.218;2022-09-02T06:09:14;94242.30;;;18.91;100.00
43553;BME280;29153;42.696;23.218;2022-09-02T06:11:43;94242.53;;;18.92;100.00
43553;BME280;29153;42.696;23.218;2022-09-02T06:14:14;94241.88;;;19.01;100.00
43553;BME280;29153;42.696;23.218;2022-09-02T06:16:45;94246.28;;;19.12;100.00
43553;BME280;29153;42.696;23.218;2022-09-02T06:19:13;94243.70;;;19.16;100.00
43553;BME280;29153;42.696;23.218;2022-09-02T06:21:41;94245.59;;;19.21;100.00
43553;BME280;29153;42.696;23.218;2022-09-02T06:24:10;94255.35;;;19.32;100.00
43553;BME280;29153;42.696;23.218;2022-09-02T06:26:39;94255.80;;;19.40;100.00
43553;BME280;29153;42.696;23.218;2022-09-02T06:29:08;94252.80;;;19.41;100.00
43553;BME280;29153;42.696;23.218;2022-09-02T06:31:41;94256.19;;;19.50;100.00
43553;BME280;29153;42.696;23.218;2022-09-02T06:37:25;94255.85;;;19.58;100.00
43553;BME280;29153;42.696;23.218;2022-09-02T06:40:14;94258.98;;;19.54;100.00
43553;BME280;29153;42.696;23.218;2022-09-02T06:42:44;94261.67;;;19.54;100.00
43553;BME280;29153;42.696;23.218;2022-09-02T06:45:16;94257.52;;;19.57;100.00
43553;BME280;29153;42.696;23.218;2022-09-02T06:47:43;94265.03;;;19.75;100.00
43553;BME280;29153;42.696;23.218;2022-09-02T06:52:58;94270.19;;;19.80;100.00
43553;BME280;29153;42.696;23.218;2022-09-02T06:55:26;94281.27;;;19.85;100.00
43553;BME280;29153;42.696;23.218;2022-09-02T06:57:54;94276.87;;;19.98;100.00
43553;BME280;29153;42.696;23.218;2022-09-02T07:00:21;94277.33;;;20.07;100.00
43553;BME280;29153;42.696;23.218;2022-09-02T07:02:50;94280.12;;;20.10;100.00
43553;BME280;29153;42.696;23.218;2022-09-02T07:05:20;94277.98;;;20.10;100.00
43553;BME280;29153;42.696;23.218;2022-09-02T07:10:51;94286.03;;;20.16;100.00
43553;BME280;29153;42.696;23.218;2022-09-02T07:13:18;94292.53;;;20.33;98.86
43553;BME280;29153;42.696;23.218;2022-09-02T07:15:46;94295.67;;;20.35;96.22
43553;BME280;29153;42.696;23.218;2022-09-02T07:18:14;94291.87;;;20.36;96.82
43553;BME280;29153;42.696;23.218;2022-09-02T07:20:44;94296.20;;;20.47;96.38
43553;BME280;29153;42.696;23.218;2022-09-02T07:23:11;94290.59;;;20.52;100.00
43553;BME280;29153;42.696;23.218;2022-09-02T07:41:08;94302.35;;;21.15;90.01
43553;BME280;29153;42.696;23.218;2022-09-02T07:43:38;94303.77;;;21.24;88.22
43553;BME280;29153;42.696;23.218;2022-09-02T07:46:06;94298.28;;;21.43;88.25
43553;BME280;29153;42.696;23.218;2022-09-02T07:48:39;94300.13;;;21.48;84.67
43553;BME280;29153;42.696;23.218;2022-09-02T07:51:10;94295.44;;;21.45;88.52
43553;BME280;29153;42.696;23.218;2022-09-02T07:53:40;94303.19;;;21.62;87.00
43553;BME280;29153;42.696;23.218;2022-09-02T07:56:10;94304.44;;;21.74;84.72
43553;BME280;29153;42.696;23.218;2022-09-02T07:58:41;94302.43;;;21.40;84.38
43553;BME280;29153;42.696;23.218;2022-09-02T08:01:12;94302.83;;;21.48;87.82
43553;BME280;29153;42.696;23.218;2022-09-02T08:03:41;94318.95;;;21.60;83.63
43553;BME280;29153;42.696;23.218;2022-09-02T08:06:11;94319.08;;;21.73;81.89
43553;BME280;29153;42.696;23.218;2022-09-02T08:08:40;94323.80;;;21.70;82.18
43553;BME280;29153;42.696;23.218;2022-09-02T08:11:08;94317.84;;;21.55;82.92
43553;BME280;29153;42.696;23.218;2022-09-02T08:13:39;94320.01;;;21.65;88.53
43553;BME280;29153;42.696;23.218;2022-09-02T08:16:06;94324.22;;;21.57;87.24
43553;BME280;29153;42.696;23.218;2022-09-02T08:18:34;94325.09;;;21.45;88.41
43553;BME280;29153;42.696;23.218;2022-09-02T08:21:01;94326.20;;;21.28;90.34
43553;BME280;29153;42.696;23.218;2022-09-02T08:23:29;94329.08;;;21.08;85.91
43553;BME280;29153;42.696;23.218;2022-09-02T08:26:00;94325.46;;;21.10;84.52
43553;BME280;29153;42.696;23.218;2022-09-02T08:28:28;94328.73;;;21.15;88.08
43553;BME280;29153;42.696;23.218;2022-09-02T08:30:57;94331.66;;;21.16;90.16
43553;BME280;29153;42.696;23.218;2022-09-02T08:33:26;94326.59;;;21.15;88.78
43553;BME280;29153;42.696;23.218;2022-09-02T08:35:54;94327.92;;;21.21;91.04
43553;BME280;29153;42.696;23.218;2022-09-02T08:38:21;94324.27;;;21.13;91.94
43553;BME280;29153;42.696;23.218;2022-09-02T08:40:50;94321.98;;;21.21;92.48
43553;BME280;29153;42.696;23.218;2022-09-02T08:43:37;94325.66;;;21.23;89.98
43553;BME280;29153;42.696;23.218;2022-09-02T08:46:04;94327.56;;;21.22;85.23
43553;BME280;29153;42.696;23.218;2022-09-02T08:48:42;94321.62;;;21.23;87.33
43553;BME280;29153;42.696;23.218;2022-09-02T08:51:27;94321.30;;;21.40;87.75
43553;BME280;29153;42.696;23.218;2022-09-02T08:53:56;94319.45;;;21.50;90.64
43553;BME280;29153;42.696;23.218;2022-09-02T08:56:23;94317.78;;;21.30;87.97
43553;BME280;29153;42.696;23.218;2022-09-02T08:58:53;94303.30;;;21.44;88.83
43553;BME280;29153;42.696;23.218;2022-09-02T09:02:04;94306.11;;;21.48;87.01
43553;BME280;29153;42.696;23.218;2022-09-02T09:10:12;94309.70;;;21.46;88.49
43553;BME280;29153;42.696;23.218;2022-09-02T09:13:14;94309.45;;;21.66;90.71
43553;BME280;29153;42.696;23.218;2022-09-02T09:16:07;94313.58;;;21.70;87.36
43553;BME280;29153;42.696;23.218;2022-09-02T09:18:38;94309.50;;;21.60;86.92
43553;BME280;29153;42.696;23.218;2022-09-02T09:21:07;94302.13;;;21.35;86.21
43553;BME280;29153;42.696;23.218;2022-09-02T09:23:38;94307.25;;;21.25;85.51
43553;BME280;29153;42.696;23.218;2022-09-02T09:26:15;94305.45;;;21.23;86.74
43553;BME280;29153;42.696;23.218;2022-09-02T09:28:46;94303.23;;;21.19;89.79
43553;BME280;29153;42.696;23.218;2022-09-02T09:31:20;94301.67;;;21.12;89.38
43553;BME280;29153;42.696;23.218;2022-09-02T09:36:42;94297.74;;;21.37;87.28
43553;BME280;29153;42.696;23.218;2022-09-02T09:39:29;94304.65;;;21.44;83.46
43553;BME280;29153;42.696;23.218;2022-09-02T09:42:03;94295.36;;;21.42;91.66
43553;BME280;29153;42.696;23.218;2022-09-02T09:44:37;94239.86;;;21.09;84.86
43553;BME280;29153;42.696;23.218;2022-09-02T09:47:05;94301.98;;;21.60;84.19
43553;BME280;29153;42.696;23.218;2022-09-02T09:49:33;94292.79;;;21.70;88.87
43553;BME280;29153;42.696;23.218;2022-09-02T09:52:02;94289.48;;;21.61;89.12
43553;BME280;29153;42.696;23.218;2022-09-02T09:54:30;94296.59;;;21.60;89.87
43553;BME280;29153;42.696;23.218;2022-09-02T09:57:20;94292.00;;;21.70;90.18
43553;BME280;29153;42.696;23.218;2022-09-02T09:59:43;94289.91;;;21.79;91.36
43553;BME280;29153;42.696;23.218;2022-09-02T10:02:24;94300.73;;;21.95;91.38
43553;BME280;29153;42.696;23.218;2022-09-02T10:04:53;94291.38;;;21.98;90.76
43553;BME280;29153;42.696;23.218;2022-09-02T10:07:39;94287.33;;;21.98;87.70
43553;BME280;29153;42.696;23.218;2022-09-02T10:10:22;94295.34;;;22.04;87.89
43553;BME280;29153;42.696;23.218;2022-09-02T10:12:53;94294.63;;;21.98;87.10
43553;BME280;29153;42.696;23.218;2022-09-02T10:15:48;94295.61;;;21.84;86.59
43553;BME280;29153;42.696;23.218;2022-09-02T10:21:01;94301.28;;;21.63;80.97
43553;BME280;29153;42.696;23.218;2022-09-02T10:23:40;94293.88;;;21.75;86.34
43553;BME280;29153;42.696;23.218;2022-09-02T10:26:28;94297.52;;;21.83;81.59
43553;BME280;29153;42.696;23.218;2022-09-02T10:35:07;94298.00;;;22.10;82.49
43553;BME280;29153;42.696;23.218;2022-09-02T10:37:40;94296.44;;;22.09;83.37
43553;BME280;29153;42.696;23.218;2022-09-02T10:40:12;94270.73;;;22.06;83.93
43553;BME280;29153;42.696;23.218;2022-09-02T10:43:00;94299.87;;;22.16;80.46
43553;BME280;29153;42.696;23.218;2022-09-02T10:45:57;94295.16;;;22.13;77.22
43553;BME280;29153;42.696;23.218;2022-09-02T10:49:01;94299.62;;;22.05;82.14
43553;BME280;29153;42.696;23.218;2022-09-02T10:51:32;94295.61;;;22.15;82.16
43553;BME280;29153;42.696;23.218;2022-09-02T10:56:50;94291.48;;;22.21;80.80
43553;BME280;29153;42.696;23.218;2022-09-02T10:59:20;94284.78;;;22.40;82.93
43553;BME280;29153;42.696;23.218;2022-09-02T11:01:56;94295.30;;;22.55;81.01
43553;BME280;29153;42.696;23.218;2022-09-02T11:04:39;94294.90;;;22.62;75.56
43553;BME280;29153;42.696;23.218;2022-09-02T11:07:08;94283.05;;;22.77;79.09
43553;BME280;29153;42.696;23.218;2022-09-02T11:12:44;94280.69;;;23.36;78.32
43553;BME280;29153;42.696;23.218;2022-09-02T11:17:46;94273.59;;;23.70;72.32
43553;BME280;29153;42.696;23.218;2022-09-02T11:25:33;94268.31;;;24.03;72.30
43553;BME280;29153;42.696;23.218;2022-09-02T11:30:52;94271.58;;;24.03;70.45
43553;BME280;29153;42.696;23.218;2022-09-02T11:33:28;94271.98;;;23.92;70.39
43553;BME280;29153;42.696;23.218;2022-09-02T11:35:58;94271.84;;;23.94;71.21
43553;BME280;29153;42.696;23.218;2022-09-02T11:38:42;94271.16;;;24.01;71.88
43553;BME280;29153;42.696;23.218;2022-09-02T11:43:55;94269.97;;;23.98;70.55
43553;BME280;29153;42.696;23.218;2022-09-02T11:54:40;94244.30;;;23.89;75.07
43553;BME280;29153;42.696;23.218;2022-09-02T11:57:13;94240.81;;;24.01;72.03
43553;BME280;29153;42.696;23.218;2022-09-02T12:02:38;94244.52;;;24.03;70.67
43553;BME280;29153;42.696;23.218;2022-09-02T12:13:30;94238.37;;;24.79;66.69
43553;BME280;29153;42.696;23.218;2022-09-02T12:15:40;94243.12;;;25.02;65.27
43553;BME280;29153;42.696;23.218;2022-09-02T12:18:25;94241.42;;;24.90;64.68
43553;BME280;29153;42.696;23.218;2022-09-02T12:26:04;94243.01;;;24.62;67.84
43553;BME280;29153;42.696;23.218;2022-09-02T12:28:32;94239.40;;;24.51;66.33
43553;BME280;29153;42.696;23.218;2022-09-02T12:33:39;94235.30;;;24.64;64.80
43553;BME280;29153;42.696;23.218;2022-09-02T12:36:08;94221.83;;;24.71;65.94
43553;BME280;29153;42.696;23.218;2022-09-02T12:38:43;94219.92;;;24.88;68.03
43553;BME280;29153;42.696;23.218;2022-09-02T12:41:17;94215.00;;;24.97;66.86
43553;BME280;29153;42.696;23.218;2022-09-02T12:44:00;94209.53;;;24.77;64.29
43553;BME280;29153;42.696;23.218;2022-09-02T12:46:47;94202.91;;;24.58;68.72
43553;BME280;29153;42.696;23.218;2022-09-02T12:52:11;94206.81;;;23.87;69.31
43553;BME280;29153;42.696;23.218;2022-09-02T12:54:41;94199.78;;;23.70;70.23
43553;BME280;29153;42.696;23.218;2022-09-02T12:57:10;94204.36;;;23.66;69.39
43553;BME280;29153;42.696;23.218;2022-09-02T12:59:39;94210.64;;;23.60;71.45
43553;BME280;29153;42.696;23.218;2022-09-02T13:21:29;94187.02;;;22.89;81.98
43553;BME280;29153;42.696;23.218;2022-09-02T13:34:50;94211.53;;;22.03;93.73
43553;BME280;29153;42.696;23.218;2022-09-02T13:37:34;94221.67;;;21.85;95.76
43553;BME280;29153;42.696;23.218;2022-09-02T15:10:39;94269.92;;;20.04;100.00
43553;BME280;29153;42.696;23.218;2022-09-02T15:13:10;94268.80;;;19.98;100.00
43553;BME280;29153;42.696;23.218;2022-09-02T15:15:39;94271.49;;;19.98;100.00
43553;BME280;29153;42.696;23.218;2022-09-02T15:18:06;94265.45;;;20.02;100.00
43553;BME280;29153;42.696;23.218;2022-09-02T15:20:34;94270.94;;;19.99;100.00
43553;BME280;29153;42.696;23.218;2022-09-02T15:23:02;94284.37;;;19.99;100.00
43553;BME280;29153;42.696;23.218;2022-09-02T15:25:29;94280.27;;;19.89;100.00
43553;BME280;29153;42.696;23.218;2022-09-02T15:27:57;94276.89;;;19.86;100.00
43553;BME280;29153;42.696;23.218;2022-09-02T15:30:24;94282.71;;;19.82;100.00
43553;BME280;29153;42.696;23.218;2022-09-02T15:32:52;94287.86;;;19.81;100.00
43553;BME280;29153;42.696;23.218;2022-09-02T15:35:19;94289.00;;;19.80;100.00
43553;BME280;29153;42.696;23.218;2022-09-02T15:37:49;94283.38;;;19.73;100.00
43553;BME280;29153;42.696;23.218;2022-09-02T15:40:16;94287.98;;;19.67;100.00
43553;BME280;29153;42.696;23.218;2022-09-02T15:42:44;94292.36;;;19.71;100.00
43553;BME280;29153;42.696;23.218;2022-09-02T15:45:11;94298.40;;;19.62;100.00
43553;BME280;29153;42.696;23.218;2022-09-02T15:47:39;94304.16;;;19.40;100.00
43553;BME280;29153;42.696;23.218;2022-09-02T15:50:08;94313.23;;;19.41;100.00
43553;BME280;29153;42.696;23.218;2022-09-02T15:52:36;94306.71;;;19.30;100.00
43553;BME280;29153;42.696;23.218;2022-09-02T15:55:04;94302.13;;;19.31;100.00
43553;BME280;29153;42.696;23.218;2022-09-02T15:57:32;94302.22;;;19.22;100.00
43553;BME280;29153;42.696;23.218;2022-09-02T15:59:59;94306.58;;;19.15;100.00
43553;BME280;29153;42.696;23.218;2022-09-02T16:02:27;94312.18;;;19.16;100.00
43553;BME280;29153;42.696;23.218;2022-09-02T16:04:55;94309.26;;;19.15;100.00
43553;BME280;29153;42.696;23.218;2022-09-02T16:07:22;94304.44;;;19.14;100.00
43553;BME280;29153;42.696;23.218;2022-09-02T16:09:50;94312.62;;;19.12;100.00
43553;BME280;29153;42.696;23.218;2022-09-02T16:12:17;94310.81;;;19.09;100.00
43553;BME280;29153;42.696;23.218;2022-09-02T16:14:45;94313.58;;;19.01;100.00
43553;BME280;29153;42.696;23.218;2022-09-02T16:17:14;94318.95;;;18.95;100.00
43553;BME280;29153;42.696;23.218;2022-09-02T16:19:42;94315.63;;;18.77;100.00
43553;BME280;29153;42.696;23.218;2022-09-02T16:22:09;94314.17;;;18.80;100.00
43553;BME280;29153;42.696;23.218;2022-09-02T16:24:37;94318.20;;;18.80;100.00
43553;BME280;29153;42.696;23.218;2022-09-02T16:27:05;94323.77;;;18.75;100.00
43553;BME280;29153;42.696;23.218;2022-09-02T16:29:32;94327.55;;;18.68;100.00
43553;BME280;29153;42.696;23.218;2022-09-02T16:32:02;94328.09;;;18.67;100.00